Tiempo atmosférico en la estación meteorológica de Córdoba, Córdoba (525 m.)



Fecha
DESCASC
Temp. máxima en grados centígrados (hora)
DESCASC
Temp. mínima en grados centígrados (hora)
DESCASC
Temp. media en grados centígrados
DESCASC
Racha de viento máxima en m/sg (hora)
DESCASC
Velocidad máxima media en intervalos de 10 minutos(hora)
DESCASC
Precipitaciones diarias en mm
DESCASC
Precipitaciones de 00:00 a 06:00 en mm
DESCASC
Precipitaciones de 06:00 a 12:00 en mm
DESCASC
Precipitaciones de 12:00 a 18:00 en mm
DESCASC
Precipitaciones de 18:00 a 24:00 en mm
DESCASC

Gráficas

Temp. máximas Temp. mínimas Temp. medias Precipitaciones Rachas de viento máximas Velocidades máximas media en intervalos de 10 minutos

Datos horarios

Fecha y hora oficial Temperatura (ºC) Velocidad del viento (km/h) Dirección del viento Racha (km/h) Dirección de racha Precipitación (mm) Presión (hPa) Tendencia (hPa) Humedad (%)
2018-01-22 23:00:00 6.1 6 Norte 19 Noroeste 0 -- -- 90
2018-01-22 22:00:00 7 4 Norte 14 Norte 0 -- -- 88
2018-01-22 21:00:00 8.7 5 Nordeste 23 Norte 0 -- -- 84
2018-01-22 20:00:00 10.2 8 Norte 16 Norte 0 -- -- 82
2018-01-22 19:00:00 11.4 6 Norte 17 Norte 0 -- -- 81
2018-01-22 18:00:00 15.5 3 Norte 7 Este 0 -- -- 61
2018-01-22 17:00:00 17.6 4 Este 11 Este 0 -- -- 62
2018-01-22 16:00:00 17.4 5 Este 10 Sudeste 0 -- -- 61
2018-01-22 15:00:00 17.3 5 Este 11 Este 0 -- -- 60
2018-01-22 14:00:00 16.1 5 Nordeste 10 Nordeste 0 -- -- 62
2018-01-22 13:00:00 14.7 5 Nordeste 12 Nordeste 0 -- -- 70
2018-01-22 12:00:00 12.8 7 Nordeste 14 Nordeste 0 -- -- 77
2018-01-22 11:00:00 9.9 5 Nordeste 9 Norte 0 -- -- 96
2018-01-22 10:00:00 6.4 4 Nordeste 7 Nordeste 0 -- -- 98
2018-01-22 09:00:00 4.3 4 Este 7 Este 0 -- -- 97
2018-01-22 08:00:00 4.5 3 Este 5 Este 0 -- -- 96
2018-01-22 07:00:00 4.7 0 Calma 8 Nordeste 0 -- -- 96
2018-01-22 06:00:00 4.8 4 Nordeste 8 Nordeste 0 -- -- 95
2018-01-22 05:00:00 5.4 4 Nordeste 8 Nordeste 0 -- -- 95
2018-01-22 04:00:00 5.3 2 Norte 4 Nordeste 0 -- -- 93
2018-01-22 03:00:00 6.8 3 Nordeste 7 Nordeste 0 -- -- 92
2018-01-22 02:00:00 7.8 4 Nordeste 13 Norte 0 -- -- 88
2018-01-22 01:00:00 9.3 6 Norte 28 Norte 0 -- -- 83
2018-01-22 00:00:00 8.8 8 Norte 17 Norte 0 -- -- 87
2018-01-21 23:00:00 7.5 6 Oeste 16 Noroeste 0 -- -- 88
2018-01-21 22:00:00 7.8 3 Norte 7 Noroeste 0 -- -- 90
2018-01-21 21:00:00 9.2 4 Oeste 10 Noroeste 0 -- -- 89
2018-01-21 20:00:00 8.7 4 Nordeste 6 Noroeste 0 -- -- 87
2018-01-21 19:00:00 11 0 Calma 9 Noroeste 0 -- -- 80
2018-01-21 18:00:00 13.6 5 Este 10 Este 0 -- -- 73
2018-01-21 17:00:00 16.3 4 Este 10 Este 0 -- -- 63
2018-01-21 16:00:00 16.5 5 Este 13 Este 0 -- -- 63
2018-01-21 15:00:00 15.5 5 Este 13 Este 0 -- -- 65
2018-01-21 14:00:00 15.5 5 Nordeste 16 Noroeste 0 -- -- 64
2018-01-21 13:00:00 13.5 8 Norte 18 Nordeste 0 -- -- 68
2018-01-21 12:00:00 11.5 9 Norte 20 Norte 0 -- -- 74
2018-01-21 11:00:00 9.2 5 Norte 12 Nordeste 0 -- -- 82
2018-01-21 10:00:00 5.7 4 Nordeste 9 Nordeste 0 -- -- 98
2018-01-21 09:00:00 3.9 4 Nordeste 7 Norte 0 -- -- 97
2018-01-21 08:00:00 3.2 2 Norte 4 Nordeste 0 -- -- 95
2018-01-21 07:00:00 3.3 3 Nordeste 6 Nordeste 0 -- -- 93
2018-01-21 06:00:00 4.5 2 Nordeste 5 Nordeste 0 -- -- 92
2018-01-21 05:00:00 4.4 3 Nordeste 7 Nordeste 0 -- -- 91
2018-01-21 04:00:00 5 3 Este 7 Noroeste 0 -- -- 88
2018-01-21 03:00:00 4.2 3 Norte 5 Nordeste 0 -- -- 89
2018-01-21 02:00:00 3.8 4 Nordeste 8 Nordeste 0 -- -- 90
2018-01-21 01:00:00 3.3 2 Norte 5 Norte 0 -- -- 94
2018-01-21 00:00:00 4.1 0 Calma 3 Oeste 0 -- -- 93
2018-01-20 23:00:00 3.6 3 Norte 4 Nordeste 0 -- -- 91
2018-01-20 22:00:00 6.3 0 Calma 7 Oeste 0 -- -- 91
2018-01-20 21:00:00 6.6 0 Calma 5 Noroeste 0 -- -- 90
2018-01-20 20:00:00 8.1 0 Calma 10 Sudoeste 0 -- -- 87
2018-01-20 19:00:00 9.6 3 Sudoeste 14 Sudoeste 0 -- -- 82
2018-01-20 18:00:00 13.3 8 Sudoeste 13 Sudoeste 0 -- -- 69
2018-01-20 17:00:00 15.5 8 Sudoeste 14 Sudoeste 0 -- -- 62
2018-01-20 16:00:00 14.8 6 Sur 11 Sudoeste 0 -- -- 64
2018-01-20 15:00:00 14 3 Nordeste 11 Este 0 -- -- 69
2018-01-20 14:00:00 14 6 Este 13 Este 0 -- -- 65
2018-01-20 13:00:00 13.4 5 Este 13 Este 0 -- -- 66
2018-01-20 12:00:00 12.2 5 Este 10 Este 0 -- -- 68
2018-01-20 11:00:00 10.8 2 Nordeste 5 Norte 0 -- -- 72
2018-01-20 10:00:00 6.3 3 Nordeste 6 Nordeste 0 -- -- 96
2018-01-20 09:00:00 3.7 2 Nordeste 6 Nordeste 0 -- -- 95
2018-01-20 08:00:00 3.5 3 Este 7 Este 0 -- -- 94
2018-01-20 07:00:00 3.6 4 Este 9 Este 0 -- -- 94
2018-01-20 06:00:00 3.4 6 Nordeste 9 Nordeste 0 -- -- 94
2018-01-20 05:00:00 3.3 0 Calma 6 Nordeste 0 -- -- 92
2018-01-20 04:00:00 4 0 Calma 9 Este 0 -- -- 90
2018-01-20 03:00:00 4.8 2 Nordeste 5 Nordeste 0 -- -- 89
2018-01-20 02:00:00 5.9 2 Norte 9 Nordeste 0 -- -- 84
2018-01-20 01:00:00 7 3 Nordeste 14 Noroeste 0 -- -- 80
2018-01-20 00:00:00 7 4 Noroeste 17 Noroeste 0 -- -- 78
2018-01-19 23:00:00 8.6 4 Nordeste 21 Noroeste 0 -- -- 69
2018-01-19 22:00:00 10 7 Norte 22 Noroeste 0 -- -- 64
2018-01-19 21:00:00 10.7 12 Norte 22 Norte 0 -- -- 61
2018-01-19 20:00:00 10 6 Norte 21 Norte 0 -- -- 68
2018-01-19 19:00:00 10.8 2 Norte 12 Sudeste 0 -- -- 72
2018-01-19 18:00:00 15.7 2 Noroeste 15 Noroeste 0 -- -- 52
2018-01-19 17:00:00 17.7 6 Noroeste 16 Noroeste 0 -- -- 42
2018-01-19 16:00:00 17.1 6 Norte 15 Nordeste 0 -- -- 45
2018-01-19 15:00:00 16.5 6 Norte 22 Norte 0 -- -- 49
2018-01-19 14:00:00 15 8 Norte 16 Nordeste 0 -- -- 53
2018-01-19 13:00:00 13.9 3 Nordeste 9 Este 0 -- -- 57
2018-01-19 12:00:00 12 5 Nordeste 15 Norte 0 -- -- 61
2018-01-19 11:00:00 9.3 6 Norte 14 Norte 0 -- -- 79
2018-01-19 10:00:00 6.2 3 Este 8 Norte 0 -- -- 91
2018-01-19 09:00:00 4.4 3 Nordeste 7 Nordeste 0 -- -- 92
2018-01-19 08:00:00 4.9 5 Este 6 Este 0 -- -- 90
2018-01-19 07:00:00 5.5 3 Sudeste 8 Norte 0 -- -- 87
2018-01-19 06:00:00 5 2 Nordeste 8 Este 0 -- -- 89
2018-01-19 05:00:00 5.3 5 Nordeste 8 Nordeste 0 -- -- 89
2018-01-19 04:00:00 5.6 2 Nordeste 6 Este 0 -- -- 88
2018-01-19 03:00:00 6 0 Calma 8 Nordeste 0 -- -- 87
2018-01-19 02:00:00 6.3 2 Nordeste 12 Norte 0 -- -- 86
2018-01-19 01:00:00 6.7 8 Nordeste 13 Norte 0 -- -- 87
2018-01-19 00:00:00 6.4 6 Nordeste 9 Nordeste 0 -- -- 89
2018-01-18 23:00:00 6.1 4 Nordeste 7 Nordeste 0 -- -- 89
2018-01-18 22:00:00 6.6 0 Calma 8 Nordeste 0 -- -- 88
2018-01-18 21:00:00 6.5 3 Nordeste 4 Este 0 -- -- 87
2018-01-18 20:00:00 8 4 Nordeste 6 Nordeste 0 -- -- 83
2018-01-18 19:00:00 9.2 3 Nordeste 7 Norte 0 -- -- 80
2018-01-18 18:00:00 11.5 0 Calma 5 Sudoeste 0 -- -- 71
2018-01-18 17:00:00 13.2 4 Sudoeste 13 Este 0 -- -- 62
2018-01-18 16:00:00 15.5 3 Sudeste 14 Sudeste 0 -- -- 54
2018-01-18 15:00:00 15.5 6 Sudeste 14 Este 0 -- -- 49
2018-01-18 14:00:00 14.8 5 Este 11 Este 0 -- -- 50
2018-01-18 13:00:00 14.7 3 Este 15 Este 0 -- -- 50
2018-01-18 12:00:00 13.7 5 Sudeste 14 Este 0 -- -- 51
2018-01-18 11:00:00 11.9 6 Este 15 Este 0 -- -- 54
2018-01-18 10:00:00 6.5 3 Nordeste 8 Nordeste 0 -- -- 76
2018-01-18 09:00:00 4.4 5 Nordeste 8 Nordeste 0 -- -- 79
2018-01-18 08:00:00 4.1 4 Nordeste 10 Nordeste 0 -- -- 79
2018-01-18 07:00:00 4.6 4 Nordeste 10 Nordeste 0 -- -- 78
2018-01-18 06:00:00 4.2 4 Este 12 Nordeste 0 -- -- 79
2018-01-18 05:00:00 5.4 7 Nordeste 12 Norte 0 -- -- 74
2018-01-18 04:00:00 5.8 8 Nordeste 14 Norte 0 -- -- 70
2018-01-18 03:00:00 6.2 2 Norte 19 Norte 0 -- -- 65
2018-01-18 02:00:00 4.9 9 Nordeste 16 Norte 0 -- -- 80
2018-01-18 01:00:00 6.4 3 Nordeste 13 Nordeste 0 -- -- 71
2018-01-18 00:00:00 8.1 6 Nordeste 23 Nordeste 0 -- -- 67
2018-01-17 23:00:00 10.2 13 Nordeste 25 Nordeste 0 -- -- 60
2018-01-17 22:00:00 8.4 14 Norte 20 Nordeste 0 -- -- 73
2018-01-17 21:00:00 8.6 7 Nordeste 19 Nordeste 0 -- -- 77
2018-01-17 20:00:00 9.5 10 Nordeste 18 Nordeste 0 -- -- 77
2018-01-17 19:00:00 11.1 4 Nordeste 8 Este 0 -- -- 71
2018-01-17 18:00:00 14.8 4 Nordeste 20 Norte 0 -- -- 64
2018-01-17 17:00:00 16.5 9 Nordeste 24 Nordeste 0 -- -- 49
2018-01-17 16:00:00 16.7 12 Nordeste 26 Nordeste 0 -- -- 50
2018-01-17 15:00:00 16 11 Nordeste 24 Nordeste 0 -- -- 62
2018-01-17 14:00:00 14.6 10 Nordeste 16 Norte 0 -- -- 66
2018-01-17 13:00:00 12.9 8 Este 21 Nordeste 0 -- -- 68
2018-01-17 12:00:00 12 7 Nordeste 17 Nordeste 0 -- -- 74
2018-01-17 11:00:00 10 11 Nordeste 20 Nordeste 0 -- -- 83
2018-01-17 10:00:00 8.6 9 Nordeste 16 Nordeste 0 -- -- 90
2018-01-17 09:00:00 8.2 6 Nordeste 14 Nordeste 0 -- -- 90
2018-01-17 08:00:00 8.6 6 Nordeste 18 Norte 0 -- -- 91
2018-01-17 07:00:00 8.2 5 Norte 17 Norte 0 -- -- 94
2018-01-17 06:00:00 8.7 4 Nordeste 13 Nordeste 0 -- -- 92
2018-01-17 05:00:00 9 6 Norte 24 Norte 0 -- -- 94
2018-01-17 04:00:00 8.8 9 Norte 22 Norte 0 -- -- 96
2018-01-17 03:00:00 8.4 8 Norte 30 Norte 0 -- -- 96
2018-01-17 02:00:00 7.8 11 Norte 22 Norte 0 -- -- 96
2018-01-17 01:00:00 6.8 4 Nordeste 20 Norte 0 -- -- 96
2018-01-17 00:00:00 6.3 3 Norte 10 Noroeste 0 -- -- 95
2018-01-16 23:00:00 5.3 3 Nordeste 9 Norte 0 -- -- 93
2018-01-16 22:00:00 5.1 4 Nordeste 8 Nordeste 0 -- -- 94
2018-01-16 21:00:00 5 3 Nordeste 5 Nordeste 0 -- -- 91
2018-01-16 20:00:00 6.9 3 Nordeste 5 Norte 0 -- -- 84
2018-01-16 19:00:00 8.9 3 Nordeste 5 Nordeste 0 -- -- 76
2018-01-16 18:00:00 12.4 0 Calma 8 Este 0 -- -- 63
2018-01-16 17:00:00 13.8 3 Este 8 Este 0 -- -- 59
2018-01-16 16:00:00 13 5 Este 13 Este 0 -- -- 60
2018-01-16 15:00:00 12.4 6 Este 16 Este 0 -- -- 65
2018-01-16 14:00:00 12.3 7 Este 14 Este 0 -- -- 62
2018-01-16 13:00:00 10.3 7 Este 12 Este 0 -- -- 68
2018-01-16 12:00:00 8.9 6 Este 11 Este 0 -- -- 72
2018-01-16 11:00:00 7.5 3 Nordeste 6 Nordeste 0 -- -- 79
2018-01-16 10:00:00 3.1 0 Calma 4 Nordeste 0 -- -- 98
2018-01-16 09:00:00 0.9 3 Nordeste 6 Nordeste 0 -- -- 96
2018-01-16 08:00:00 1.4 4 Nordeste 5 Este 0 -- -- 96
2018-01-16 07:00:00 1.5 3 Nordeste 7 Nordeste 0 -- -- 96
2018-01-16 06:00:00 1.3 0 Calma 7 Este 0 -- -- 95
2018-01-16 05:00:00 1.6 4 Este 6 Nordeste 0 -- -- 94
2018-01-16 04:00:00 1.8 4 Este 7 Este 0 -- -- 94
2018-01-16 03:00:00 1.8 5 Este 8 Nordeste 0 -- -- 93
2018-01-16 02:00:00 2 5 Nordeste 7 Nordeste 0 -- -- 93
2018-01-16 01:00:00 2 3 Nordeste 8 Nordeste 0 -- -- 93
2018-01-16 00:00:00 2.1 4 Nordeste 9 Nordeste 0 -- -- 93
2018-01-15 23:00:00 1.5 3 Norte 5 Norte 0 -- -- 93
2018-01-15 22:00:00 2.2 4 Nordeste 6 Nordeste 0 -- -- 92
2018-01-15 21:00:00 3 3 Nordeste 7 Nordeste 0 -- -- 92
2018-01-15 20:00:00 4.2 0 Calma 6 Nordeste 0 -- -- 88
2018-01-15 19:00:00 6 2 Nordeste 6 Nordeste 0 -- -- 83
2018-01-15 18:00:00 9.7 0 Calma 12 Este 0 -- -- 69
2018-01-15 17:00:00 11.4 5 Sudeste 14 Nordeste 0 -- -- 63
2018-01-15 16:00:00 11.2 6 Nordeste 19 Norte 0 -- -- 57
2018-01-15 15:00:00 10.7 9 Nordeste 18 Nordeste 0 -- -- 56
2018-01-15 14:00:00 10.3 6 Nordeste 18 Nordeste 0 -- -- 63
2018-01-15 13:00:00 9.1 10 Nordeste 20 Nordeste 0 -- -- 67
2018-01-15 12:00:00 7.7 10 Nordeste 23 Nordeste 0 -- -- 72
2018-01-15 11:00:00 6 12 Nordeste 23 Norte 0 -- -- 76
2018-01-15 10:00:00 3.9 13 Nordeste 24 Nordeste 0 -- -- 85
2018-01-15 09:00:00 2.6 12 Nordeste 21 Norte 0 -- -- 88
2018-01-15 08:00:00 2.4 12 Norte 21 Norte 0.2 -- -- 93
2018-01-15 07:00:00 1.3 9 Nordeste 17 Norte 0 -- -- 97
2018-01-15 06:00:00 1.2 6 Nordeste 13 Norte 0 -- -- 97
2018-01-15 05:00:00 0.7 4 Nordeste 10 Norte 0 -- -- 97
2018-01-15 04:00:00 0.9 3 Norte 9 Norte 0 -- -- 97
2018-01-15 03:00:00 1.3 4 Norte 12 Norte 0 -- -- 97
2018-01-15 02:00:00 1.9 4 Norte 18 Norte 0 -- -- 96
2018-01-15 01:00:00 1.7 6 Norte 14 Norte 0 -- -- 97
2018-01-15 00:00:00 2 5 Nordeste 12 Norte 0 -- -- 96
2018-01-14 23:00:00 1.5 4 Nordeste 5 Nordeste 0 -- -- 95
2018-01-14 22:00:00 2.6 3 Norte 5 Norte 0 -- -- 94
2018-01-14 21:00:00 3.6 2 Nordeste 8 Norte 0 -- -- 93
2018-01-14 20:00:00 3.9 3 Norte 7 Norte 0 -- -- 93
2018-01-14 19:00:00 5.1 3 Norte 8 Noroeste 0 -- -- 90
2018-01-14 18:00:00 6.1 4 Norte 15 Norte 0 -- -- 85
2018-01-14 17:00:00 7.4 8 Norte 16 Noroeste 0.2 -- -- 84
2018-01-14 16:00:00 7 4 Norte 11 Noroeste 0 -- -- 89
2018-01-14 15:00:00 6.8 3 Oeste 12 Norte 0 -- -- 93
2018-01-14 14:00:00 6.1 4 Norte 12 Noroeste 0 -- -- 98
2018-01-14 13:00:00 5.9 5 Norte 13 Norte 0.4 -- -- 98
2018-01-14 12:00:00 6 4 Sudoeste 6 Sudoeste 1.2 -- -- 99
2018-01-14 11:00:00 5.7 0 Calma 3 Sur 0 -- -- 99
2018-01-14 10:00:00 5.1 0 Calma 5 Sudoeste 0.2 -- -- 99
2018-01-14 09:00:00 5 2 Sur 6 Sudoeste 0 -- -- 98
2018-01-14 08:00:00 4.9 0 Calma 5 Oeste 0 -- -- 98
2018-01-14 07:00:00 4.8 4 Oeste 8 Oeste 0 -- -- 98
2018-01-14 06:00:00 4.7 0 Calma 6 Sudoeste 0 -- -- 98
2018-01-14 05:00:00 4.3 3 Oeste 8 Sudoeste 0 -- -- 98
2018-01-14 04:00:00 4.2 0 Calma 13 Oeste 0 -- -- 98
2018-01-14 03:00:00 4.7 6 Sudoeste 11 Noroeste 0 -- -- 98
2018-01-14 02:00:00 4.6 4 Sudoeste 13 Oeste 0 -- -- 98
2018-01-14 01:00:00 4.8 5 Oeste 13 Noroeste 0 -- -- 98
2018-01-14 00:00:00 5.5 4 Sudoeste 16 Oeste 0 -- -- 98
2018-01-13 23:00:00 5.6 7 Sudoeste 17 Sudoeste 0 -- -- 98
2018-01-13 22:00:00 5.6 11 Sudoeste 19 Oeste 0 -- -- 98
2018-01-13 21:00:00 5.7 8 Sudoeste 19 Sudoeste 0 -- -- 98
2018-01-13 20:00:00 5.8 11 Sudoeste 15 Sudoeste 0 -- -- 97
2018-01-13 19:00:00 6 7 Sudoeste 14 Sudoeste 0 -- -- 97
2018-01-13 18:00:00 6.2 7 Oeste 19 Noroeste 0 -- -- 97
2018-01-13 17:00:00 6.2 7 Sudoeste 21 Sudoeste 0 -- -- 96
2018-01-13 16:00:00 6.1 4 Sudoeste 14 Sudoeste 0.6 -- -- 96
2018-01-13 15:00:00 5.6 8 Sudoeste 21 Sudoeste 1 -- -- 94
2018-01-13 14:00:00 5.8 7 Sudoeste 30 Sudoeste 1.8 -- -- 92
2018-01-13 13:00:00 7.4 15 Sudoeste 28 Sudoeste 0 -- -- 84
2018-01-13 12:00:00 7.2 11 Sudoeste 22 Sudoeste 0 -- -- 82
2018-01-13 11:00:00 4.8 3 Sudoeste 7 Sur 0 -- -- 94
2018-01-13 10:00:00 2.7 0 Calma 5 Nordeste 0 -- -- 96
2018-01-13 09:00:00 1.9 0 Calma 2 Noroeste 0 -- -- 95
2018-01-13 08:00:00 1.9 0 Calma 4 Nordeste 0 -- -- 94
2018-01-13 07:00:00 1.9 0 Calma 5 Nordeste 0 -- -- 94
2018-01-13 06:00:00 2.1 0 Calma 5 Nordeste 0 -- -- 93
2018-01-13 05:00:00 2.6 0 Calma 5 Nordeste 0 -- -- 92
2018-01-13 04:00:00 2.6 2 Oeste 5 Nordeste 0 -- -- 92
2018-01-13 03:00:00 2.7 3 Nordeste 6 Nordeste 0 -- -- 92
2018-01-13 02:00:00 2.6 2 Sudoeste 4 Sudoeste 0 -- -- 94
2018-01-13 01:00:00 1.8 3 Nordeste 6 Nordeste 0 -- -- 94
2018-01-13 00:00:00 1.5 2 Norte 6 Nordeste 0 -- -- 93
2018-01-12 23:00:00 1.3 3 Nordeste 5 Nordeste 0 -- -- 92
2018-01-12 22:00:00 1.7 5 Nordeste 7 Nordeste 0 -- -- 90
2018-01-12 21:00:00 2.9 4 Nordeste 7 Nordeste 0 -- -- 88
2018-01-12 20:00:00 4.5 3 Nordeste 7 Nordeste 0 -- -- 84
2018-01-12 19:00:00 5.9 3 Nordeste 4 Este 0 -- -- 80
2018-01-12 18:00:00 8.7 0 Calma 5 Este 0 -- -- 66
2018-01-12 17:00:00 10.2 3 Este 8 Sudeste 0 -- -- 56
2018-01-12 16:00:00 10.8 3 Este 18 Nordeste 0 -- -- 54
2018-01-12 15:00:00 10.5 5 Este 13 Sur 0 -- -- 56
2018-01-12 14:00:00 9.7 4 Este 13 Este 0 -- -- 60
2018-01-12 13:00:00 8.7 3 Este 17 Este 0 -- -- 68
2018-01-12 12:00:00 6.8 9 Nordeste 17 Este 0 -- -- 78
2018-01-12 11:00:00 4.6 5 Este 12 Este 0 -- -- 92
2018-01-12 10:00:00 2 3 Nordeste 5 Nordeste 0 -- -- 98
2018-01-12 09:00:00 0.2 3 Este 5 Noroeste 0 -- -- 97
2018-01-12 08:00:00 -0.1 4 Nordeste 8 Nordeste 0 -- -- 96
2018-01-12 07:00:00 0.2 5 Nordeste 8 Nordeste 0 -- -- 96
2018-01-12 06:00:00 -0.2 2 Nordeste 5 Este 0 -- -- 96
2018-01-12 05:00:00 0.1 0 Calma 4 Nordeste 0 -- -- 95
2018-01-12 04:00:00 0.9 0 Calma 6 Oeste 0 -- -- 94
2018-01-12 03:00:00 1.7 2 Sudoeste 6 Oeste 0 -- -- 92
2018-01-12 02:00:00 3 3 Norte 11 Noroeste 0 -- -- 92
2018-01-12 01:00:00 3.9 3 Noroeste 10 Oeste 0 -- -- 87
2018-01-12 00:00:00 3.8 0 Calma 13 Oeste 0 -- -- 85
2018-01-11 23:00:00 5.1 5 Noroeste 12 Noroeste 0 -- -- 81
2018-01-11 22:00:00 4.7 0 Calma 8 Oeste 0 -- -- 82
2018-01-11 21:00:00 5.8 2 Noroeste 12 Noroeste 0 -- -- 77
2018-01-11 20:00:00 6.7 3 Noroeste 10 Oeste 0 -- -- 75
2018-01-11 19:00:00 7.6 4 Noroeste 14 Noroeste 0 -- -- 73
2018-01-11 18:00:00 9.3 4 Oeste 22 Oeste 0 -- -- 70
2018-01-11 17:00:00 10.5 9 Oeste 24 Noroeste 0 -- -- 65
2018-01-11 16:00:00 9.9 5 Noroeste 26 Oeste 0 -- -- 68
2018-01-11 15:00:00 10.5 10 Noroeste 24 Oeste 0 -- -- 65
2018-01-11 14:00:00 9 12 Sudoeste 25 Sudoeste 0 -- -- 82
2018-01-11 13:00:00 7.6 10 Sudoeste 21 Sur 0 -- -- 89
2018-01-11 12:00:00 6.6 12 Sudoeste 19 Sudoeste 0 -- -- 89
2018-01-11 11:00:00 6.8 11 Sudoeste 19 Sudoeste 0 -- -- 88
2018-01-11 10:00:00 5.7 9 Sudoeste 16 Oeste 0 -- -- 94
2018-01-11 09:00:00 3.4 8 Sudoeste 14 Sudoeste 0 -- -- 95
2018-01-11 08:00:00 3.3 9 Oeste 13 Oeste 0 -- -- 94
2018-01-11 07:00:00 3.6 2 Oeste 17 Sudoeste 0 -- -- 91
2018-01-11 06:00:00 4.1 5 Oeste 14 Noroeste 0 -- -- 90
2018-01-11 05:00:00 4.3 3 Oeste 14 Oeste 0 -- -- 89
2018-01-11 04:00:00 4.8 5 Oeste 15 Noroeste 0 -- -- 88
2018-01-11 03:00:00 5.7 6 Oeste 17 Noroeste 0 -- -- 86
2018-01-11 02:00:00 6.2 6 Oeste 19 Noroeste 0 -- -- 83
2018-01-11 01:00:00 6.8 7 Noroeste 26 Noroeste 0 -- -- 80
2018-01-11 00:00:00 7.3 8 Noroeste 31 Noroeste 0 -- -- 82
2018-01-10 23:00:00 7.8 8 Noroeste 30 Norte 0 -- -- 84
2018-01-10 22:00:00 8.5 9 Noroeste 30 Noroeste 0 -- -- 87
2018-01-10 21:00:00 9.3 10 Oeste 41 Sudoeste 0.2 -- -- 88
2018-01-10 20:00:00 10.4 21 Sudoeste 42 Sudoeste 0.4 -- -- 95
2018-01-10 19:00:00 10.1 13 Sudoeste 33 Sudoeste 0.6 -- -- 95
2018-01-10 18:00:00 10.3 14 Sudoeste 32 Sudoeste 0 -- -- 91
2018-01-10 17:00:00 10.5 13 Sudoeste 29 Sudoeste 0 -- -- 90
2018-01-10 16:00:00 11.1 17 Sudoeste 27 Sudoeste 0 -- -- 84
2018-01-10 15:00:00 10.7 12 Sudoeste 26 Sudoeste 0 -- -- 86
2018-01-10 14:00:00 11 12 Sudoeste 25 Sudoeste 0 -- -- 83
2018-01-10 13:00:00 10.6 13 Sudoeste 26 Sudoeste 0 -- -- 84
2018-01-10 12:00:00 9.3 10 Sudoeste 26 Oeste 0 -- -- 95
2018-01-10 11:00:00 8.8 11 Sudoeste 20 Oeste 0 -- -- 98
2018-01-10 10:00:00 6.8 4 Sudoeste 12 Oeste 0 -- -- 99
2018-01-10 09:00:00 6 3 Sudoeste 8 Sudoeste 0 -- -- 98
2018-01-10 08:00:00 6.8 2 Oeste 10 Sudoeste 0 -- -- 98
2018-01-10 07:00:00 7.8 7 Oeste 12 Sudoeste 0 -- -- 98
2018-01-10 06:00:00 7.7 6 Oeste 12 Sudoeste 0 -- -- 98
2018-01-10 05:00:00 6.5 0 Calma 9 Norte 0.2 -- -- 98
2018-01-10 04:00:00 6.7 2 Norte 7 Norte 0.2 -- -- 98
2018-01-10 03:00:00 6.4 2 Nordeste 9 Este 1.2 -- -- 98
2018-01-10 02:00:00 6.4 4 Este 6 Sur 0.2 -- -- 98
2018-01-10 01:00:00 6.9 4 Sur 10 Sudeste 0.6 -- -- 98
2018-01-10 00:00:00 6.1 0 Calma 6 Sur 1.2 -- -- 97
2018-01-09 23:00:00 5.9 2 Sudeste 13 Sudeste 1.2 -- -- 98
2018-01-09 22:00:00 5.8 3 Sudeste 9 Sur 0.6 -- -- 98
2018-01-09 21:00:00 5 0 Calma 8 Nordeste 0.6 -- -- 97
2018-01-09 20:00:00 5.4 3 Sudeste 15 Sur 1.2 -- -- 96
2018-01-09 19:00:00 4.7 0 Calma 6 Este 0.2 -- -- 96
2018-01-09 18:00:00 4.4 3 Este 8 Este 0 -- -- 95
2018-01-09 17:00:00 4.7 4 Sudeste 12 Este 0 -- -- 93
2018-01-09 16:00:00 5.7 4 Sudeste 12 Sur 0 -- -- 88
2018-01-09 15:00:00 6.2 3 Sur 18 Sudoeste 0 -- -- 85
2018-01-09 14:00:00 5.7 7 Sur 16 Sur 0 -- -- 95
2018-01-09 13:00:00 4.7 5 Sudoeste 11 Sur 0 -- -- 98
2018-01-09 12:00:00 4.1 3 Sur 7 Sur 0 -- -- 98
2018-01-09 11:00:00 3.1 2 Sudeste 7 Sur 0 -- -- 98
2018-01-09 10:00:00 1.8 0 Calma 6 Sudeste 0.2 -- -- 98
2018-01-09 09:00:00 0 0 Calma 4 Nordeste 0 -- -- 97
2018-01-09 08:00:00 -0.5 0 Calma 4 Nordeste 0 -- -- 97
2018-01-09 07:00:00 -0.9 0 Calma 4 Nordeste 0 -- -- 97
2018-01-09 06:00:00 -0.6 4 Nordeste 6 Nordeste 0 -- -- 96
2018-01-09 05:00:00 -0.5 3 Nordeste 5 Nordeste 0 -- -- 96
2018-01-09 04:00:00 -0.1 0 Calma 5 Nordeste 0 -- -- 95
2018-01-09 03:00:00 0.4 3 Nordeste 5 Este 0 -- -- 95
2018-01-09 02:00:00 0.9 4 Nordeste 6 Nordeste 0 -- -- 94
2018-01-09 01:00:00 1.4 0 Calma 5 Este 0 -- -- 93
2018-01-09 00:00:00 1.6 2 Nordeste 9 Nordeste 0 -- -- 93
2018-01-08 23:00:00 1.7 4 Nordeste 11 Norte 0 -- -- 93
2018-01-08 22:00:00 1.9 3 Nordeste 6 Norte 0 -- -- 93
2018-01-08 21:00:00 2.1 4 Nordeste 6 Nordeste 0 -- -- 93
2018-01-08 20:00:00 3 0 Calma 6 Nordeste 0 -- -- 90
2018-01-08 19:00:00 4.8 2 Nordeste 4 Nordeste 0 -- -- 86
2018-01-08 18:00:00 7.3 2 Oeste 6 Sudeste 0 -- -- 79
2018-01-08 17:00:00 9.1 3 Sudeste 8 Sur 0 -- -- 67
2018-01-08 16:00:00 8.1 0 Calma 12 Este 0 -- -- 62
2018-01-08 15:00:00 8.3 6 Nordeste 13 Este 0 -- -- 66
2018-01-08 14:00:00 7.5 5 Este 13 Nordeste 0 -- -- 73
2018-01-08 13:00:00 6 6 Este 21 Este 0 -- -- 84
2018-01-08 12:00:00 4.6 10 Nordeste 19 Nordeste 0 -- -- 87
2018-01-08 11:00:00 4.1 10 Nordeste 18 Nordeste 0 -- -- 97
2018-01-08 10:00:00 3 8 Nordeste 18 Nordeste 0 -- -- 98
2018-01-08 09:00:00 2.7 7 Nordeste 16 Este 0.2 -- -- 98
2018-01-08 08:00:00 2.8 6 Este 15 Este 0.4 -- -- 98
2018-01-08 07:00:00 2.7 6 Este 14 Este 0.2 -- -- 98
2018-01-08 06:00:00 2.8 3 Este 13 Este 0.8 -- -- 98
2018-01-08 05:00:00 2.7 3 Este 12 Nordeste 0.4 -- -- 97
2018-01-08 04:00:00 2.6 3 Sudeste 10 Este 0.8 -- -- 97
2018-01-08 03:00:00 2.7 2 Este 8 Este 0.6 -- -- 97
2018-01-08 02:00:00 2.7 2 Este 7 Este 0.2 -- -- 97
2018-01-08 01:00:00 2.7 0 Calma 6 Este 0 -- -- 97
2018-01-08 00:00:00 2.7 3 Este 9 Este 0 -- -- 97
2018-01-07 23:00:00 2.7 4 Este 8 Este 0 -- -- 96
2018-01-07 22:00:00 2.8 2 Este 8 Sudoeste 0 -- -- 96
2018-01-07 21:00:00 2.9 3 Sudoeste 7 Sudoeste 0 -- -- 95
2018-01-07 20:00:00 2.7 0 Calma 7 Sudoeste 0.2 -- -- 94
2018-01-07 19:00:00 2.7 2 Sudoeste 16 Sur 0 -- -- 92
2018-01-07 18:00:00 3.1 6 Sudoeste 13 Sudoeste 0 -- -- 91
2018-01-07 17:00:00 3.5 3 Sudoeste 14 Sudoeste 0 -- -- 90
2018-01-07 16:00:00 3.3 7 Sudoeste 14 Sudoeste 0 -- -- 91
2018-01-07 15:00:00 3.3 9 Sudoeste 15 Sudoeste 0 -- -- 91
2018-01-07 14:00:00 2.8 7 Sudoeste 19 Sudoeste 0 -- -- 93
2018-01-07 13:00:00 2.4 12 Sudoeste 20 Sudoeste 0 -- -- 93
2018-01-07 12:00:00 2.3 10 Sudoeste 18 Sudoeste 0 -- -- 93
2018-01-07 11:00:00 2.1 4 Sur 10 Sudoeste 0 -- -- 94
2018-01-07 10:00:00 1.1 8 Sudoeste 13 Sudoeste 0 -- -- 95
2018-01-07 09:00:00 0.6 5 Sudoeste 10 Oeste 0 -- -- 95
2018-01-07 08:00:00 0.4 6 Sudoeste 10 Oeste 0 -- -- 95
2018-01-07 07:00:00 0.2 4 Sudoeste 6 Sudoeste 0 -- -- 95
2018-01-07 06:00:00 -0.8 2 Oeste 8 Sudoeste 0 -- -- 94
2018-01-07 05:00:00 -0.2 3 Oeste 10 Oeste 0 -- -- 93
2018-01-07 04:00:00 -0.8 4 Sudoeste 8 Sudoeste 0 -- -- 92
2018-01-07 03:00:00 -0.2 3 Sudoeste 8 Sudoeste 0 -- -- 88
2018-01-07 02:00:00 1.5 4 Sudoeste 14 Oeste 0 -- -- 80
2018-01-07 01:00:00 2.2 6 Oeste 14 Oeste 0 -- -- 77
2018-01-07 00:00:00 1.7 7 Oeste 13 Sudoeste 0 -- -- 84
2018-01-06 23:00:00 3.1 9 Oeste 17 Sudoeste 0 -- -- 77
2018-01-06 22:00:00 3.7 7 Oeste 17 Oeste 0 -- -- 78
2018-01-06 21:00:00 4.6 8 Oeste 19 Oeste 0 -- -- 73
2018-01-06 20:00:00 5.4 6 Oeste 23 Oeste 0 -- -- 74
2018-01-06 19:00:00 5.3 7 Oeste 12 Noroeste 0 -- -- 78
2018-01-06 18:00:00 6.3 7 Oeste 23 Noroeste 0 -- -- 71
2018-01-06 17:00:00 7.9 9 Oeste 31 Oeste 0 -- -- 65
2018-01-06 16:00:00 9 10 Noroeste 29 Oeste 0 -- -- 69
2018-01-06 15:00:00 7.5 10 Oeste 28 Noroeste 0 -- -- 80
2018-01-06 14:00:00 6.2 10 Noroeste 29 Oeste 0.2 -- -- 88
2018-01-06 13:00:00 5.8 7 Noroeste 24 Norte 0 -- -- 86
2018-01-06 12:00:00 5.5 8 Norte 28 Norte 0 -- -- 88
2018-01-06 11:00:00 5 10 Norte 27 Norte 0 -- -- 91
2018-01-06 10:00:00 4.3 9 Norte 38 Nordeste 0.4 -- -- 92
2018-01-06 09:00:00 3.8 13 Norte 33 Nordeste 1 -- -- 94
2018-01-06 08:00:00 3.6 13 Norte 26 Norte 1.2 -- -- 95
2018-01-06 07:00:00 3.3 10 Norte 25 Norte 2.2 -- -- 94
2018-01-06 06:00:00 4.4 8 Noroeste 30 Norte 2.6 -- -- 94
2018-01-06 05:00:00 5 13 Norte 29 Noroeste 2.6 -- -- 95
2018-01-06 04:00:00 5.6 18 Norte 37 Noroeste 5.2 -- -- 95
2018-01-06 03:00:00 8.7 4 Oeste 18 Oeste 2.8 -- -- 96
2018-01-06 02:00:00 9 6 Sudoeste 39 Sudoeste 2.4 -- -- 96
2018-01-06 01:00:00 9.8 23 Sudoeste 48 Sudoeste 0.2 -- -- 95
2018-01-06 00:00:00 9.5 16 Sudoeste 43 Sudoeste 1.6 -- -- 95
2018-01-05 23:00:00 9.4 18 Sudoeste 33 Sur 0 -- -- 94
2018-01-05 22:00:00 9.4 21 Sudoeste 46 Sudoeste 1.2 -- -- 95
2018-01-05 21:00:00 9.7 25 Sudoeste 40 Sudoeste 0.2 -- -- 94
2018-01-05 20:00:00 10.1 17 Sudoeste 35 Sur 0 -- -- 88
2018-01-05 19:00:00 10.4 16 Sudoeste 31 Sudoeste 0 -- -- 90
2018-01-05 18:00:00 10.3 16 Sudoeste 30 Sudoeste 0 -- -- 93
2018-01-05 17:00:00 9.9 9 Sudoeste 25 Sudoeste 0 -- -- 94
2018-01-05 16:00:00 9.8 14 Sudoeste 26 Sudoeste 0.2 -- -- 92
2018-01-05 15:00:00 10.1 13 Sudoeste 25 Sudoeste 0 -- -- 88
2018-01-05 14:00:00 10.1 13 Sudoeste 26 Sudoeste 0 -- -- 87
2018-01-05 13:00:00 10.3 11 Sudoeste 26 Sudoeste 0 -- -- 85
2018-01-05 12:00:00 10.5 12 Sudoeste 25 Oeste 0 -- -- 81
2018-01-05 11:00:00 10.1 11 Sudoeste 24 Sudoeste 0 -- -- 86
2018-01-05 10:00:00 9.6 12 Sudoeste 25 Sudoeste 0 -- -- 92
2018-01-05 09:00:00 9.4 5 Sudoeste 12 Oeste 0 -- -- 91
2018-01-05 08:00:00 9.6 8 Sudoeste 18 Sudoeste 0 -- -- 93
2018-01-05 07:00:00 9.7 7 Sudoeste 15 Sudoeste 0 -- -- 95
2018-01-05 06:00:00 9.9 4 Sudoeste 10 Oeste 0 -- -- 96
2018-01-05 05:00:00 9.9 5 Sudoeste 10 Sudoeste 0 -- -- 96
2018-01-05 04:00:00 9.9 5 Sudoeste 9 Sudoeste 0 -- -- 96
2018-01-05 03:00:00 10 5 Sudoeste 9 Sudoeste 0 -- -- 96
2018-01-05 02:00:00 10.1 7 Sudoeste 14 Sudoeste 0 -- -- 96
2018-01-05 01:00:00 10.2 4 Sudoeste 14 Sudoeste 0 -- -- 95
2018-01-05 00:00:00 10.3 9 Sudoeste 13 Sudoeste 0 -- -- 95
2018-01-04 23:00:00 10.2 6 Sudoeste 9 Sudoeste 0 -- -- 95
2018-01-04 22:00:00 10.2 3 Sudoeste 11 Sudoeste 0 -- -- 94
2018-01-04 21:00:00 10.2 5 Sudoeste 12 Sudoeste 0 -- -- 93
2018-01-04 20:00:00 10.4 5 Sudoeste 8 Sur 0 -- -- 92
2018-01-04 19:00:00 10.7 2 Sur 6 Oeste 0 -- -- 90
2018-01-04 18:00:00 11.2 4 Oeste 10 Sudoeste 0 -- -- 89
2018-01-04 17:00:00 12.1 2 Oeste 15 Oeste 0 -- -- 85
2018-01-04 16:00:00 12.7 5 Oeste 16 Norte 0 -- -- 82
2018-01-04 15:00:00 12.4 7 Norte 18 Norte 0 -- -- 84
2018-01-04 14:00:00 11.9 0 Calma 8 Este 0 -- -- 86
2018-01-04 13:00:00 11.4 2 Este 5 Este 0 -- -- 87
2018-01-04 12:00:00 10.6 4 Nordeste 6 Este 0 -- -- 89
2018-01-04 11:00:00 10.3 2 Este 4 Este 0 -- -- 90
2018-01-04 10:00:00 9.8 0 Calma -- -- 0 -- -- 92
2018-01-04 09:00:00 9.7 0 Calma -- -- 0 -- -- 92
2018-01-04 08:00:00 9.8 0 Calma 4 Este 0 -- -- 92
2018-01-04 07:00:00 9.7 0 Calma 4 Este 0 -- -- 93
2018-01-04 06:00:00 9.7 0 Calma 2 Sudoeste 0 -- -- 93
2018-01-04 05:00:00 9.8 0 Calma 2 Sudoeste 0 -- -- 93
2018-01-04 04:00:00 9.8 0 Calma 12 Este 0 -- -- 93
2018-01-04 03:00:00 9.9 2 Este 11 Este 0 -- -- 92
2018-01-04 02:00:00 10.6 2 Este 9 Este 0 -- -- 91
2018-01-04 01:00:00 10.9 0 Calma 5 Nordeste 0 -- -- 90
2018-01-04 00:00:00 11.1 0 Calma 9 Norte 0 -- -- 89
2018-01-03 23:00:00 11 3 Nordeste 13 Norte 0 -- -- 89
2018-01-03 22:00:00 11.1 5 Nordeste 13 Nordeste 0 -- -- 88
2018-01-03 21:00:00 11.1 4 Norte 13 Norte 0 -- -- 88
2018-01-03 20:00:00 11.2 5 Nordeste 17 Nordeste 0 -- -- 88
2018-01-03 19:00:00 11.6 8 Nordeste 14 Norte 0 -- -- 85
2018-01-03 18:00:00 12.2 6 Nordeste 17 Norte 0 -- -- 83
2018-01-03 17:00:00 12.8 7 Nordeste 14 Norte 0 -- -- 82
2018-01-03 16:00:00 11.9 5 Este 10 Este 0 -- -- 83
2018-01-03 15:00:00 11.3 3 Sudeste 12 Este 0 -- -- 84
2018-01-03 14:00:00 11.2 4 Este 12 Este 0 -- -- 84
2018-01-03 13:00:00 10.8 4 Este 9 Este 0 -- -- 86
2018-01-03 12:00:00 10.4 3 Este 6 Este 0 -- -- 87
2018-01-03 11:00:00 9.4 0 Calma 4 Este 0 -- -- 90
2018-01-03 10:00:00 8.6 2 Nordeste 6 Nordeste 0 -- -- 90
2018-01-03 09:00:00 8.1 0 Calma 6 Este 0 -- -- 89
2018-01-03 08:00:00 8.2 0 Calma 9 Este 0 -- -- 88
2018-01-03 07:00:00 8.9 3 Este 6 Este 0 -- -- 90
2018-01-03 06:00:00 8.7 2 Nordeste 4 Nordeste 0 -- -- 89
2018-01-03 05:00:00 8.6 0 Calma 7 Este 0 -- -- 88
2018-01-03 04:00:00 9 2 Este 10 Norte 0 -- -- 86
2018-01-03 03:00:00 10.5 4 Nordeste 13 Norte 0 -- -- 89
2018-01-03 02:00:00 10.6 6 Norte 14 Norte 0 -- -- 88
2018-01-03 01:00:00 10.5 5 Norte 16 Nordeste 0 -- -- 89
2018-01-03 00:00:00 9.7 4 Norte 10 Norte 0 -- -- 92
2018-01-02 23:00:00 8.6 2 Noroeste 9 Noroeste 0 -- -- 94
2018-01-02 22:00:00 7.4 3 Norte 6 Noroeste 0 -- -- 95
2018-01-02 21:00:00 6.5 0 Calma 5 Norte 0 -- -- 91
2018-01-02 20:00:00 7.9 0 Calma 8 Este 0 -- -- 87
2018-01-02 19:00:00 9.5 5 Norte 11 Norte 0 -- -- 82
2018-01-02 18:00:00 11.8 5 Norte 16 Norte 0 -- -- 74
2018-01-02 17:00:00 12.6 3 Este 13 Norte 0 -- -- 71
2018-01-02 16:00:00 14.1 3 Este 9 Este 0 -- -- 67
2018-01-02 15:00:00 12.5 3 Nordeste 10 Nordeste 0 -- -- 71
2018-01-02 14:00:00 11.6 3 Noroeste 13 Nordeste 0 -- -- 76
2018-01-02 13:00:00 10.3 8 Norte 16 Nordeste 0 -- -- 80
2018-01-02 12:00:00 8.9 4 Nordeste 10 Nordeste 0 -- -- 94
2018-01-02 11:00:00 7.7 4 Nordeste 9 Norte 0 -- -- 97
2018-01-02 10:00:00 5.8 3 Nordeste 5 Norte 0 -- -- 98
2018-01-02 09:00:00 4.3 2 Nordeste 6 Nordeste 0 -- -- 97
2018-01-02 08:00:00 3.1 2 Este 5 Oeste 0 -- -- 97
2018-01-02 07:00:00 3.6 0 Calma 10 Noroeste 0 -- -- 97
2018-01-02 06:00:00 2.1 0 Calma 5 Noroeste 0 -- -- 96
2018-01-02 05:00:00 2.3 2 Nordeste 5 Nordeste 0 -- -- 96
2018-01-02 04:00:00 2.6 2 Norte 4 Nordeste 0 -- -- 95
2018-01-02 03:00:00 2.9 0 Calma 3 Norte 0 -- -- 94
2018-01-02 02:00:00 3.3 0 Calma 5 Nordeste 0 -- -- 93
2018-01-02 01:00:00 3.9 0 Calma 5 Este 0 -- -- 92
2018-01-02 00:00:00 4.6 0 Calma 5 Noroeste 0 -- -- 89
2018-01-01 23:00:00 6 0 Calma 6 Sudoeste 0 -- -- 82
2018-01-01 22:00:00 7.9 0 Calma 11 Norte 0 -- -- 76
2018-01-01 21:00:00 8.9 5 Norte 24 Norte 0 -- -- 71
2018-01-01 20:00:00 9.2 8 Norte 22 Noroeste 0 -- -- 58
2018-01-01 19:00:00 9.8 6 Noroeste 15 Noroeste 0 -- -- 53
2018-01-01 18:00:00 11.6 6 Oeste 15 Norte 0 -- -- 46
2018-01-01 17:00:00 14.3 6 Noroeste 18 Noroeste 0 -- -- 35
2018-01-01 16:00:00 14.7 8 Norte 19 Norte 0 -- -- 43
2018-01-01 15:00:00 14.8 8 Oeste 16 Sudoeste 0 -- -- 48
2018-01-01 14:00:00 14.3 6 Sudoeste 16 Oeste 0 -- -- 50
2018-01-01 13:00:00 13.3 4 Noroeste 9 Sudoeste 0 -- -- 51
2018-01-01 12:00:00 10.8 0 Calma 6 Sudeste 0 -- -- 64
2018-01-01 11:00:00 8.1 3 Este 8 Este 0 -- -- 86
2018-01-01 10:00:00 3.1 3 Nordeste 6 Nordeste 0 -- -- 98
2018-01-01 09:00:00 1.5 0 Calma 7 Nordeste 0 -- -- 96
2018-01-01 08:00:00 2 4 Nordeste 8 Este 0 -- -- 96
2018-01-01 07:00:00 1.9 6 Nordeste 9 Nordeste 0 -- -- 95
2018-01-01 06:00:00 2.7 3 Nordeste 5 Nordeste 0 -- -- 94
2018-01-01 05:00:00 4.2 3 Nordeste 8 Norte 0 -- -- 92
2018-01-01 04:00:00 5.5 3 Sudoeste 20 Norte 0 -- -- 90
2018-01-01 03:00:00 6.5 4 Noroeste 17 Noroeste 0 -- -- 89
2018-01-01 02:00:00 7.6 9 Norte 27 Noroeste 0 -- -- 85
2018-01-01 01:00:00 7.4 5 Noroeste 15 Oeste 0 -- -- 91
2018-01-01 00:00:00 7.6 4 Norte 16 Noroeste 0 -- -- 90
2017-12-31 23:00:00 8.6 6 Noroeste 18 Oeste 0 -- -- 89
2017-12-31 22:00:00 9.1 5 Noroeste 21 Norte 0 -- -- 88
2017-12-31 21:00:00 9.9 7 Noroeste 24 Noroeste 0.2 -- -- 86
2017-12-31 20:00:00 11 10 Oeste 29 Sudoeste 0.4 -- -- 93
2017-12-31 19:00:00 11.2 13 Sudoeste 22 Sudoeste 0 -- -- 90
2017-12-31 18:00:00 10.8 4 Sudoeste 24 Sudoeste 0 -- -- 90
2017-12-31 17:00:00 11.3 9 Oeste 18 Sudoeste 0 -- -- 86
2017-12-31 16:00:00 12.1 13 Sudoeste 23 Sudoeste 0 -- -- 83
2017-12-31 15:00:00 11.7 10 Sudoeste 22 Sudoeste 0 -- -- 85
2017-12-31 14:00:00 11.1 9 Sudoeste 19 Sudoeste 0 -- -- 92
2017-12-31 13:00:00 10.9 10 Sudoeste 22 Oeste 0 -- -- 97
2017-12-31 12:00:00 10.3 8 Sudoeste 14 Sur 0 -- -- 98
2017-12-31 11:00:00 9.2 3 Sudoeste 6 Sudoeste 0 -- -- 98
2017-12-31 10:00:00 8 0 Calma 5 Sur 0 -- -- 97
2017-12-31 09:00:00 6.1 0 Calma 5 Nordeste 0 -- -- 98
2017-12-31 08:00:00 5.7 3 Nordeste 7 Nordeste 0 -- -- 97
2017-12-31 07:00:00 5.9 2 Nordeste 6 Nordeste 0 -- -- 97
2017-12-31 06:00:00 5.7 4 Nordeste 6 Nordeste 0 -- -- 97
2017-12-31 05:00:00 6.1 3 Nordeste 5 Nordeste 0 -- -- 97
2017-12-31 04:00:00 6.8 2 Nordeste 8 Este 0 -- -- 97
2017-12-31 03:00:00 6.8 3 Nordeste 8 Nordeste 0 -- -- 97
2017-12-31 02:00:00 6.5 0 Calma 8 Este 0 -- -- 96
2017-12-31 01:00:00 6.5 6 Este 8 Nordeste 0 -- -- 96